Have a Safe July 4th! 

Flight Track Log - Related Links

Times and Time Zones

All times are in EDT time to prevent confusion due to time zone crossing. See the SWA655 flight status page for this flight to view local times or setup timezone preferences in your user account.

Time Position Orientation Groundspeed Altitude Reporting Facility
EDT Latitude Longitude Course Direction KTS MPH feet Rate Location/Type
Wed 08:40:58 PM 36.0769 -115.0828 92° East 189 217 3,900  Level Los Angeles Center
Wed 08:41:59 PM 36.0753 -115.0061 92° East 249 287 5,500 1,835 Climbing Los Angeles Center
Wed 08:42:59 PM 36.0689 -114.9072 95° East 308 354 7,600 2,646 Climbing Los Angeles Center
Wed 08:44:06 PM 36.0531 -114.7872 99° East 305 351 11,100 2,603 Climbing Los Angeles Center
Wed 08:45:15 PM 36.0331 -114.6550 101° East 339 390 13,500 1,969 Climbing Los Angeles Center
Wed 08:46:17 PM 36.0153 -114.5367 100° East 349 402 15,400 1,728 Climbing Los Angeles Center
Wed 08:47:20 PM 35.9972 -114.4061 100° East 381 438 17,100 1,728 Climbing Los Angeles Center
Wed 08:48:22 PM 35.9775 -114.2711 100° East 398 458 19,000 1,742 Climbing Los Angeles Center
Wed 08:49:24 PM 35.9569 -114.1303 100° East 413 475 20,700 1,597 Climbing Los Angeles Center
Wed 08:50:26 PM 35.9353 -113.9881 101° East 422 486 22,300 1,694 Climbing Los Angeles Center
Wed 08:51:28 PM 35.9053 -113.8125 102° East 435 501 24,200 1,694 Climbing Los Angeles Center
Wed 08:52:30 PM 35.8747 -113.6664 104° East 439 505 25,800 1,306 Climbing Los Angeles Center
Wed 08:53:32 PM 35.8475 -113.5317 104° East 440 506 26,900 1,016 Climbing Los Angeles Center
Wed 08:54:34 PM 35.8153 -113.3811 105° East 452 520 27,900 1,113 Climbing Los Angeles Center
Wed 08:55:36 PM 35.7847 -113.2283 104° East 459 528 29,200 1,306 Climbing Los Angeles Center
Wed 08:56:38 PM 35.7464 -113.0472 105° East 454 522 30,600 1,161 Climbing Los Angeles Center
Wed 08:57:40 PM 35.7147 -112.8961 104° East 454 522 31,600 1,016 Climbing Los Angeles Center
Wed 08:58:42 PM 35.6828 -112.7447 105° East 455 524 32,700 677 Climbing Los Angeles Center
Wed 08:59:44 PM 35.6503 -112.5942 105° East 453 521 33,000 677 Climbing Los Angeles Center
Wed 09:00:46 PM 35.6175 -112.4450 105° East 453 521 34,100 923 Climbing Los Angeles Center
Wed 09:01:41 PM 35.5794 -112.2989 108° East 453 521 34,800 462 Climbing Albuquerque Center
Wed 09:02:43 PM 35.5267 -112.1544 114° Southeast 462 532 35,000 98 Climbing Albuquerque Center
Wed 09:03:44 PM 35.4772 -112.0086 113° Southeast 466 536 35,000  Level Albuquerque Center
Wed 09:04:47 PM 35.4283 -111.8631 112° Southeast 463 533 35,000  Level Albuquerque Center
Wed 09:05:48 PM 35.3789 -111.7192 113° Southeast 461 531 35,000  Level Albuquerque Center
Wed 09:06:50 PM 35.3300 -111.5761 113° Southeast 460 529 35,000  Level Albuquerque Center
Wed 09:07:52 PM 35.2728 -111.4047 112° Southeast 457 526 35,000  Level Albuquerque Center
Wed 09:08:53 PM 35.2233 -111.2631 113° Southeast 455 524 35,000  Level Albuquerque Center
Wed 09:09:55 PM 35.1742 -111.1211 113° Southeast 454 522 35,000  Level Albuquerque Center
Wed 09:10:57 PM 35.1211 -110.9658 113° Southeast 453 521 35,000  Level Albuquerque Center
Wed 09:11:59 PM 35.0719 -110.8314 114° Southeast 454 522 35,000  Level Albuquerque Center
Wed 09:13:01 PM 34.9928 -110.6914 125° Southeast 454 522 35,000  Level Albuquerque Center
Wed 09:14:02 PM 34.9139 -110.5756 130° Southeast 459 528 35,000  Level Albuquerque Center
Wed 09:15:04 PM 34.8225 -110.4406 129° Southeast 461 531 35,000  Level Albuquerque Center
Wed 09:16:06 PM 34.7439 -110.3250 130° Southeast 462 532 35,000  Level Albuquerque Center
Wed 09:17:08 PM 34.6636 -110.2075 130° Southeast 467 537 35,000  Level Albuquerque Center
Wed 09:18:10 PM 34.5667 -110.0678 130° Southeast 477 549 35,000  Level Albuquerque Center
Wed 09:19:11 PM 34.4858 -109.9478 129° Southeast 481 554 35,000  Level Albuquerque Center
Wed 09:20:13 PM 34.3908 -109.8108 130° Southeast 477 549 35,000  Level Albuquerque Center
Wed 09:21:15 PM 34.3094 -109.6936 130° Southeast 476 548 35,000  Level Albuquerque Center
Wed 09:22:18 PM 34.2136 -109.5564 130° Southeast 478 550 35,000  Level Albuquerque Center
Wed 09:23:18 PM 34.1308 -109.4381 130° Southeast 480 552 35,000  Level Albuquerque Center
Wed 09:24:20 PM 34.0497 -109.3228 130° Southeast 483 556 35,000  Level Albuquerque Center
Wed 09:25:22 PM 33.9453 -109.1758 131° Southeast 485 558 35,000  Level Albuquerque Center
Wed 09:26:24 PM 33.8589 -109.0528 130° Southeast 485 558 35,000  Level Albuquerque Center
Wed 09:27:25 PM 33.7714 -108.9317 131° Southeast 483 556 35,000  Level Albuquerque Center
Wed 09:28:27 PM 33.6850 -108.8094 130° Southeast 482 555 35,000  Level Albuquerque Center
Wed 09:29:29 PM 33.5964 -108.6861 131° Southeast 487 560 35,000  Level Albuquerque Center
Wed 09:30:30 PM 33.5103 -108.5642 130° Southeast 482 555 35,000  Level Albuquerque Center
Wed 09:31:32 PM 33.4056 -108.4192 131° Southeast 480 552 35,000  Level Albuquerque Center
Wed 09:32:34 PM 33.3178 -108.2992 131° Southeast 480 552 35,000  Level Albuquerque Center
Wed 09:33:35 PM 33.2300 -108.1789 131° Southeast 480 552 35,000  Level Albuquerque Center
Wed 09:34:37 PM 33.1369 -108.0525 131° Southeast 482 555 35,000  Level Albuquerque Center
Wed 09:35:39 PM 33.0497 -107.9314 131° Southeast 482 555 35,000  Level Albuquerque Center
Wed 09:36:40 PM 32.9600 -107.8100 131° Southeast 486 559 35,000  Level Albuquerque Center
Wed 09:37:42 PM 32.8711 -107.6906 132° Southeast 484 557 35,000  Level Albuquerque Center
Wed 09:38:44 PM 32.7803 -107.5689 132° Southeast 489 563 35,000  Level Albuquerque Center
Wed 09:39:45 PM 32.6817 -107.4325 131° Southeast 487 560 35,000  Level Albuquerque Center
Wed 09:40:47 PM 32.5928 -107.3128 131° Southeast 486 559 35,000  Level Albuquerque Center
Wed 09:41:48 PM 32.5050 -107.1953 132° Southeast 482 555 35,000  Level Albuquerque Center
Wed 09:42:50 PM 32.4047 -107.0564 131° Southeast 479 551 35,000  Level Albuquerque Center
Wed 09:43:51 PM 32.3164 -106.9406 132° Southeast 476 548 35,000  Level Albuquerque Center
Wed 09:44:53 PM 32.2275 -106.8217 131° Southeast 473 544 35,000  Level Albuquerque Center
Wed 09:45:55 PM 32.1397 -106.7067 132° Southeast 472 543 35,000  Level Albuquerque Center
Wed 09:46:56 PM 32.0528 -106.5922 132° Southeast 471 542 35,000  Level Albuquerque Center
Wed 09:47:58 PM 31.9653 -106.4786 132° Southeast 469 540 35,000  Level Albuquerque Center
Wed 09:48:59 PM 31.8819 -106.3722 133° Southeast 469 540 35,000  Level Albuquerque Center
Wed 09:50:01 PM 31.8086 -106.2481 125° Southeast 463 533 35,000  Level Albuquerque Center
Wed 09:51:02 PM 31.7725 -106.0800 104° East 446 513 35,000  Level Albuquerque Center
Wed 09:52:04 PM 31.7492 -105.9361 101° East 447 514 35,000  Level Albuquerque Center
Wed 09:53:05 PM 31.7258 -105.7928 101° East 448 516 35,000  Level Albuquerque Center
Wed 09:54:07 PM 31.7019 -105.6489 101° East 449 517 35,000  Level Albuquerque Center
Wed 09:55:08 PM 31.6783 -105.5044 101° East 449 517 35,000  Level Albuquerque Center
Wed 09:56:10 PM 31.6533 -105.3600 101° East 451 519 35,000  Level Albuquerque Center
Wed 09:57:11 PM 31.6297 -105.2156 101° East 450 518 35,000  Level Albuquerque Center
Wed 09:58:13 PM 31.6061 -105.0694 101° East 453 521 35,000  Level Albuquerque Center
Wed 09:59:14 PM 31.5814 -104.9233 101° East 455 524 35,000  Level Albuquerque Center
Wed 10:00:16 PM 31.5558 -104.7778 102° East 455 524 35,000  Level Albuquerque Center
Wed 10:02:19 PM 31.5000 -104.4558 101° East 456 525 35,000  Level Albuquerque Center
Wed 10:03:20 PM 31.4758 -104.3103 101° East 456 525 35,000  Level Albuquerque Center
Wed 10:04:21 PM 31.4508 -104.1636 101° East 457 526 35,000  Level Albuquerque Center
Wed 10:05:23 PM 31.4236 -104.0167 102° East 460 529 35,000  Level Albuquerque Center
Wed 10:06:24 PM 31.3983 -103.8692 101° East 462 532 35,000  Level Albuquerque Center
Wed 10:07:26 PM 31.3711 -103.7236 102° East 466 536 35,000  Level Albuquerque Center
Wed 10:08:27 PM 31.3378 -103.5450 102° East 468 539 35,000  Level Albuquerque Center
Wed 10:09:28 PM 31.3108 -103.3953 102° East 470 541 35,000  Level Albuquerque Center
Wed 10:10:30 PM 31.2831 -103.2450 102° East 474 545 35,000  Level Albuquerque Center
Wed 10:11:31 PM 31.2533 -103.0939 103° East 476 548 35,000  Level Albuquerque Center
Wed 10:12:33 PM 31.2256 -102.9414 102° East 480 552 35,000  Level Albuquerque Center
Wed 10:13:34 PM 31.1964 -102.7903 103° East 480 552 35,000  Level Albuquerque Center
Wed 10:14:35 PM 31.1675 -102.6400 103° East 480 552 35,000  Level Albuquerque Center
Wed 10:15:37 PM 31.1367 -102.4753 102° East 482 555 35,000  Level Albuquerque Center
Wed 10:16:38 PM 31.1081 -102.3256 103° East 478 550 35,000  Level Albuquerque Center
Wed 10:17:39 PM 31.0783 -102.1761 103° East 476 548 35,000  Level Albuquerque Center
Wed 10:18:41 PM 31.0492 -102.0267 103° East 474 545 35,000  Level Albuquerque Center
Wed 10:19:42 PM 31.0189 -101.8681 103° East 473 544 35,000  Level Albuquerque Center
Wed 10:20:43 PM 30.9894 -101.7194 103° East 472 543 35,000  Level Albuquerque Center
Wed 10:23:05 PM 30.9172 -101.3597 103° East 476 548 35,000  Level Houston Center
Wed 10:24:06 PM 30.8867 -101.2083 103° East 479 551 35,000  Level Houston Center
Wed 10:25:08 PM 30.8583 -101.0547 102° East 481 554 35,000  Level Houston Center
Wed 10:26:09 PM 30.8258 -100.9056 104° East 476 548 35,000  Level Houston Center
Wed 10:27:11 PM 30.7953 -100.7533 103° East 481 554 35,000  Level Houston Center
Wed 10:28:12 PM 30.7578 -100.5722 104° East 479 551 35,000 -49 Level Houston Center
Wed 10:29:13 PM 30.7264 -100.4228 104° East 476 548 34,900  Descending Houston Center
Wed 10:30:16 PM 30.6958 -100.2739 103° East 472 543 35,000 49 Climbing Houston Center
Wed 10:31:16 PM 30.6647 -100.1250 104° East 471 542 35,000 -49 Level Houston Center
Wed 10:32:18 PM 30.6333 -99.9772 104° East 470 541 34,900  Descending Houston Center
Wed 10:33:19 PM 30.6017 -99.8303 104° East 467 537 35,000 49 Climbing Houston Center
Wed 10:34:21 PM 30.5800 -99.6772 99° East 478 550 35,000  Level Houston Center
Wed 10:35:22 PM 30.5603 -99.5244 98° East 478 550 35,000  Level Houston Center
Wed 10:36:24 PM 30.5406 -99.3728 99° East 475 547 35,000  Level Houston Center
Wed 10:37:25 PM 30.5214 -99.2219 98° East 472 543 35,000  Level Houston Center
Wed 10:38:26 PM 30.5011 -99.0639 98° East 472 543 35,000  Level Houston Center
Wed 10:39:28 PM 30.4803 -98.9122 99° East 472 543 35,000  Level Houston Center
Wed 10:40:29 PM 30.4558 -98.7331 99° East 479 551 35,000  Level Houston Center
Wed 10:41:31 PM 30.4361 -98.5806 98° East 476 548 35,000  Level Houston Center
Wed 10:42:32 PM 30.4164 -98.4269 98° East 477 549 35,000  Level Houston Center
Wed 10:43:34 PM 30.3942 -98.2711 99° East 485 558 35,000  Level Houston Center
Wed 10:44:35 PM 30.3717 -98.1139 99° East 490 564 35,000  Level Houston Center
Wed 10:45:36 PM 30.3511 -97.9567 99° East 491 565 35,000  Level Houston Center
Wed 10:46:38 PM 30.3292 -97.7975 99° East 497 572 35,000  Level Houston Center
Wed 10:47:39 PM 30.3053 -97.6367 100° East 503 579 35,000  Level Houston Center
Wed 10:48:40 PM 30.2819 -97.4786 100° East 500 575 35,000  Level Houston Center
Wed 10:49:42 PM 30.2589 -97.3122 99° East 513 590 35,000  Level Houston Center
Wed 10:50:43 PM 30.2339 -97.1500 100° East 512 589 35,000  Level Houston Center
Wed 10:51:45 PM 30.2064 -96.9592 99° East 516 594 35,000  Level Houston Center
Wed 10:52:46 PM 30.1817 -96.7972 100° East 511 588 35,000  Level Houston Center
Wed 10:53:47 PM 30.1578 -96.6331 100° East 513 590 35,000  Level Houston Center
Wed 10:54:49 PM 30.1331 -96.4697 100° East 515 593 35,000  Level Houston Center
Wed 10:55:50 PM 30.1094 -96.3147 100° East 515 593 35,000  Level Houston Center
Wed 10:56:51 PM 30.0833 -96.1519 100° East 516 594 35,000  Level Houston Center
Wed 10:57:53 PM 30.0569 -95.9764 100° East 518 596 35,000  Level Houston Center
Wed 10:58:54 PM 30.0311 -95.8133 100° East 517 595 35,000 49 Level Houston Center
Wed 10:59:55 PM 30.0047 -95.6514 101° East 513 590 35,100  Climbing Houston Center
Wed 11:00:57 PM 29.9792 -95.4881 100° East 515 593 35,000 -49 Descending Houston Center
Wed 11:01:58 PM 29.9444 -95.3294 104° East 506 582 35,000  Level Houston Center
Wed 11:02:59 PM 29.8939 -95.1781 111° Southeast 500 575 35,000  Level Houston Center
Wed 11:04:01 PM 29.8436 -95.0256 111° Southeast 501 577 35,000  Level Houston Center
Wed 11:05:02 PM 29.7917 -94.8761 112° Southeast 498 573 35,000  Level Houston Center
Wed 11:06:03 PM 29.7397 -94.7261 112° Southeast 499 574 35,000  Level Houston Center
Wed 11:07:05 PM 29.6775 -94.5481 112° Southeast 499 574 35,000  Level Houston Center
Wed 11:08:06 PM 29.6433 -94.3872 104° East 517 595 35,000  Level Houston Center
Wed 11:09:07 PM 29.6272 -94.2203 96° East 525 604 35,000  Level Houston Center
Wed 11:10:09 PM 29.6189 -94.0583 93° East 538 619 35,000  Level Houston Center
Wed 11:11:10 PM 29.6042 -93.8925 96° East 529 609 35,000  Level Houston Center
Wed 11:12:11 PM 29.5836 -93.7267 98° East 529 609 35,000 146 Level Houston Center
Wed 11:13:13 PM 29.5594 -93.5292 98° East 525 604 35,300 634 Climbing Houston Center
Wed 11:14:14 PM 29.5394 -93.3664 98° East 521 600 36,300 836 Climbing Houston Center
Wed 11:15:15 PM 29.5197 -93.2047 98° East 516 594 37,000 344 Climbing Houston Center
Wed 11:16:16 PM 29.4997 -93.0414 98° East 520 598 37,000  Level Houston Center
Wed 11:17:18 PM 29.4789 -92.8778 98° East 521 600 37,000  Level Houston Center
Wed 11:18:19 PM 29.4583 -92.7131 98° East 524 603 37,000  Level Houston Center
Wed 11:19:20 PM 29.4364 -92.5503 99° East 518 596 37,000  Level Houston Center
Wed 11:20:21 PM 29.4156 -92.3869 98° East 520 598 37,000  Level Houston Center
Wed 11:21:23 PM 29.3911 -92.1906 98° East 520 598 37,000  Level Houston Center
Wed 11:22:24 PM 29.3681 -92.0272 99° East 521 600 37,000  Level Houston Center
Wed 11:23:25 PM 29.3472 -91.8636 98° East 520 598 37,000  Level Houston Center
Wed 11:24:26 PM 29.3253 -91.7108 99° East 517 595 37,000  Level Houston Center
Wed 11:25:28 PM 29.3050 -91.5469 98° East 520 598 37,000  Level Houston Center
Wed 11:26:29 PM 29.2819 -91.3836 99° East 521 600 37,000  Level Houston Center
Wed 11:27:30 PM 29.2592 -91.2175 99° East 522 601 37,000  Level Houston Center
Wed 11:28:31 PM 29.2322 -91.0253 99° East 520 598 37,000  Level Houston Center
Wed 11:29:32 PM 29.2086 -90.8622 99° East 522 601 37,000  Level Houston Center
Wed 11:30:34 PM 29.1853 -90.7006 99° East 519 597 37,000  Level Houston Center
Wed 11:31:35 PM 29.1625 -90.5372 99° East 521 600 37,000  Level Houston Center
Wed 11:32:36 PM 29.1381 -90.3750 100° East 521 600 37,000  Level Houston Center
Wed 11:33:37 PM 29.1139 -90.2092 99° East 528 608 37,000  Level Houston Center
Wed 11:34:38 PM 29.0897 -90.0478 100° East 520 598 37,000  Level Houston Center
Wed 11:35:39 PM 29.0656 -89.8847 100° East 523 602 37,000  Level Houston Center
Wed 11:36:40 PM 29.0406 -89.7217 100° East 523 602 37,000  Level Houston Center
Wed 11:37:42 PM 29.0114 -89.5269 100° East 522 601 37,000  Level Houston Center
Wed 11:38:43 PM 28.9861 -89.3636 100° East 525 604 37,000  Level Houston Center
Wed 11:39:44 PM 28.9622 -89.2036 100° East 518 596 37,000 -49 Level Houston Center
Wed 11:40:45 PM 28.9369 -89.0419 100° East 517 595 36,900  Descending Houston Center
Wed 11:41:46 PM 28.9122 -88.8822 100° East 516 594 37,000 49 Climbing Houston Center
Wed 11:42:47 PM 28.8864 -88.7211 100° East 518 596 37,000  Level Houston Center
Wed 11:43:48 PM 28.8467 -88.5647 106° East 518 596 37,000  Level Houston Center
Wed 11:44:49 PM 28.8031 -88.4100 108° East 515 593 37,000  Level Houston Center
Wed 11:45:50 PM 28.7589 -88.2547 108° East 517 595 37,000  Level Houston Center
Wed 11:46:51 PM 28.7094 -88.0733 107° East 516 594 37,000  Level Houston Center
Wed 11:47:52 PM 28.6650 -87.9181 108° East 518 596 37,000  Level Houston Center
Wed 11:48:53 PM 28.6317 -87.7597 103° East 517 595 37,000  Level Houston Center
Wed 11:49:54 PM 28.5983 -87.6003 103° East 520 598 37,000  Level Houston Center
Wed 11:50:28 PM 28.5764 -87.5042 105° East 502 578 37,000  Level Jacksonville Center
Wed 11:51:28 PM 28.5444 -87.3467 103° East 507 583 37,000  Level Jacksonville Center
Wed 11:52:28 PM 28.5081 -87.1869 104° East 514 592 37,000  Level Jacksonville Center
Wed 11:53:28 PM 28.4717 -87.0272 104° East 514 592 37,000  Level Jacksonville Center
Wed 11:54:28 PM 28.4367 -86.8722 104° East 514 592 37,000  Level Jacksonville Center
Wed 11:55:28 PM 28.4039 -86.7153 103° East 514 592 37,000  Level Jacksonville Center
Wed 11:56:28 PM 28.3667 -86.5606 105° East 514 592 37,000  Level Jacksonville Center
Wed 11:57:28 PM 28.3317 -86.4014 104° East 519 597 37,000  Level Jacksonville Center
Wed 11:58:28 PM 28.2942 -86.2422 105° East 514 592 37,000  Level Jacksonville Center
Wed 11:59:28 PM 28.2586 -86.0831 104° East 508 585 37,000  Level Jacksonville Center
Thu 12:00:28 AM 28.2206 -85.9242 105° East 508 585 37,000  Level Jacksonville Center
Thu 12:01:28 AM 28.1867 -85.7700 104° East 514 592 37,000  Level Jacksonville Center
Thu 12:03:45 AM 28.1072 -85.4275 105° East 519 597 37,000  Level Miami Center
Thu 12:04:46 AM 28.0725 -85.2744 104° East 511 588 37,000  Level Miami Center
Thu 12:05:45 AM 28.0339 -85.1142 105° East 511 588 37,000  Level Miami Center
Thu 12:06:46 AM 27.9950 -84.9564 106° East 517 595 37,000  Level Miami Center
Thu 12:07:44 AM 27.9617 -84.8086 104° East 507 583 37,000  Level Miami Center
Thu 12:08:46 AM 27.9142 -84.6481 108° East 512 589 37,000  Level Miami Center
Thu 12:09:45 AM 27.8808 -84.4908 103° East 512 589 37,000  Level Miami Center
Thu 12:10:45 AM 27.8411 -84.3358 106° East 517 595 37,000  Level Miami Center
Thu 12:11:46 AM 27.7992 -84.1806 107° East 517 595 37,000  Level Miami Center
Thu 12:12:46 AM 27.7653 -84.0239 104° East 517 595 37,000  Level Miami Center
Thu 12:13:46 AM 27.7292 -83.8669 105° East 517 595 37,000  Level Miami Center
Thu 12:14:44 AM 27.6867 -83.7119 107° East 517 595 37,000 -305 Level Miami Center
Thu 12:15:44 AM 27.6647 -83.5583 99° East 510 587 36,400 -793 Descending Miami Center
Thu 12:16:45 AM 27.6883 -83.4053 80° East 486 559 35,400 -958 Descending Miami Center
Thu 12:17:43 AM 27.7078 -83.2517 82° East 486 559 34,500 -893 Descending Miami Center
Thu 12:18:46 AM 27.7375 -83.0986 78° East 491 565 33,600 -1,600 Descending Miami Center
Thu 12:19:43 AM 27.7628 -82.9478 79° East 491 565 31,300 -2,492 Descending Miami Center
Thu 12:20:44 AM 27.7842 -82.7822 82° East 496 571 28,700 -2,430 Descending Miami Center
Thu 12:21:44 AM 27.8047 -82.6356 81° East 482 555 26,400 -2,231 Descending Miami Center
Thu 12:22:45 AM 27.8289 -82.5008 79° East 458 527 24,200 -2,164 Descending Miami Center
Thu 12:23:46 AM 27.8794 -82.3789 65° Northeast 433 498 22,000 -2,132 Descending Miami Center
Thu 12:24:46 AM 27.9069 -82.2581 76° East 417 480 19,900 -2,034 Descending Miami Center
Thu 12:25:44 AM 27.9442 -82.1542 68° East 394 453 18,000 -1,966 Descending Miami Center
Thu 12:26:45 AM 27.9797 -82.0431 70° East 384 442 16,000 -1,450 Descending Miami Center
Thu 12:29:15 AM 28.1000 -81.7833 62° Northeast 325 374 12,900 -1,286 Descending Orlando TRACON
Thu 12:30:15 AM 28.1500 -81.7167 50° Northeast 307 353 11,500 -1,550 Descending Orlando TRACON
Thu 12:31:15 AM 28.2000 -81.6333 56° Northeast 305 351 9,800 -1,250 Descending Orlando TRACON
Thu 12:32:15 AM 28.2500 -81.5667 50° Northeast 307 353 9,000 -476 Descending Orlando TRACON
Thu 12:33:21 AM 28.3333 -81.4833 41° Northeast 310 357 8,800 -857 Descending Orlando TRACON
Thu 12:34:21 AM 28.3833 -81.4333 41° Northeast 301 346 7,200 -1,550 Descending Orlando TRACON
Thu 12:35:21 AM 28.4667 -81.4167 10° North 283 326 5,700 -1,500 Descending Orlando TRACON
Thu 12:36:21 AM 28.5500 -81.4167 360° North 280 322 4,200 -1,200 Descending Orlando TRACON
Thu 12:37:21 AM 28.6167 -81.4167 360° North 243 280 3,300 -600 Descending Orlando TRACON
Thu 12:38:21 AM 28.6500 -81.3667 53° Northeast 210 242 3,000 -381 Descending Orlando TRACON
Thu 12:39:27 AM 28.6333 -81.3167 111° Southeast 179 206 2,500 -238 Descending Orlando TRACON
Thu 12:40:27 AM 28.5833 -81.3000 164° South 128 147 2,500 -53 Level Orlando TRACON
Thu 12:41:21 AM 28.5500 -81.3000 180° South 137 158 2,400 -474 Descending Orlando TRACON
Thu 12:42:21 AM 28.5167 -81.3000 180° South 137 158 1,600 -700 Descending Orlando TRACON
Thu 12:43:21 AM 28.4833 -81.3000 180° South 128 147 1,000 -600 Descending Orlando TRACON

Login

Don't have an account? Register now (free) for customized features, flight alerts, and more!